Aérodrome :
LOGIN :

S'inscrire | Disclaimer

   EN    FR    IT 

 










Légende :    VFR   VFR Marginal   IFR   IFR Intensif   IFR Très Intensif
Visi : 
Plafond : 
>= 8 km
>= 3000ft
5 à 8 km
1000 à 3000 ft
1500m à 5 km
500 à 1000 ft
800 à 1500m
200 à 500 ft
< 800m
< 200 ft
Symboles :   Orages  Brouillard  Fortes neiges  Fortes précipitations  Vent > 20 kt
SIGMETs :   Divers  Orages  Givrage  Turbulence  Onde Orograph.  Cendres Volcan.







- Altitude de l'aérodrome : 17 ft
- Code IATA : DND
- Voir les cartes d'approche


EGPN - Dundee

DERNIER METAR :
  • 231450Z 30005KT 9999 FEW008 SCT015 13/12 Q1008

METARs EXPIRÉS :
  • 231420Z 00000KT 9999 FEW008 SCT015 13/12 Q1008
  • 231350Z 00000KT 9000 VCFG BKN010 13/12 Q1008
  • 231320Z 00000KT 8000 BKN010 BKN020 13/12 Q1008
  • 231250Z 00000KT 8000 BKN010 BKN020 13/12 Q1008
  • 231220Z VRB03KT 8000 BKN010 BKN020 13/11 Q1008

TAF TAF EGPN
Valide du 23 à 15h jusqu'au 23 à 20h UTC


231359Z 2315/2320 22009KT 9999 SCT020
PROB30
TEMPO 2315/2316 8000 BKN010
Pas de NOTAMs connus pour ce terrain.



MET'MAP, la Météo Aéronautique d'un coup d'oeil ! - Copyright ORBIFLY Décembre 2007 - Disclaimer

ORBIFLY MET'MAP TEAM :

Programmation & Développement : Alexandra Zaïnal
Conception & Développement : Baudouin d'Aumeries
Co-Programmation & Développement : Marc-Olivier Méhu
Soutien technique & logistique : Manuel Goepfert

Contact : metmap@orbifly.com




SOURCES & CREDITS :

   NOAA